This is the latest recevied weather packets stored in our database for station/object W4DEX-2. If no packets are shown the sender has not sent any weather packets the latest 10 day(s).
| Time | Temp. | Humidity | Pressure | Rain* | Wind** | Luminosity | Snow |
|---|---|---|---|---|---|---|---|
| 1777891502 | 8.33° C | 79% | 1015.9 hPa | 0 mm | 5.81 m/s, 174° | - | - |
| 1777891202 | 8.33° C | 79% | 1015.9 hPa | 0 mm | 5.81 m/s, 176° | - | - |
| 1777890902 | 7.78° C | 79% | 1016 hPa | 0 mm | 6.26 m/s, 176° | - | - |
| 1777890002 | 8.33° C | 78% | 1016 hPa | 0 mm | 3.13 m/s, 170° | - | - |
| 1777889702 | 8.33° C | 78% | 1016 hPa | 0 mm | 4.02 m/s, 174° | - | - |
| 1777888502 | 8.89° C | 76% | 1016.3 hPa | 0 mm | 4.92 m/s, 171° | - | - |
| 1777888202 | 8.89° C | 76% | 1016 hPa | 0 mm | 5.36 m/s, 176° | - | - |
| 1777887902 | 8.89° C | 76% | 1016.1 hPa | 0 mm | 5.81 m/s, 176° | - | - |
| 1777887302 | 8.89° C | 75% | 1016.1 hPa | 0 mm | 3.58 m/s, 166° | - | - |
| 1777886702 | 8.89° C | 75% | 1016 hPa | 0 mm | 5.36 m/s, 172° | - | - |
| 1777886402 | 8.89° C | 74% | 1015.9 hPa | 0 mm | 5.36 m/s, 169° | - | - |
| 1777886103 | 8.89° C | 74% | 1016.1 hPa | 0 mm | 6.26 m/s, 174° | - | - |
| 1777885502 | 8.89° C | 73% | 1016 hPa | 0 mm | 5.81 m/s, 173° | - | - |
| 1777885203 | 9.44° C | 72% | 1015.9 hPa | 0 mm | 5.36 m/s, 173° | - | - |
| 1777884902 | 9.44° C | 71% | 1015.9 hPa | 0 mm | 5.36 m/s, 173° | - | - |
| 1777884602 | 9.44° C | 70% | 1016 hPa | 0 mm | 5.36 m/s, 174° | - | - |
| 1777884302 | 9.44° C | 69% | 1015.9 hPa | 0 mm | 5.36 m/s, 173° | - | - |
| 1777883402 | 9.44° C | 67% | 1015.9 hPa | 0 mm | 4.92 m/s, 171° | - | - |
| 1777883102 | 9.44° C | 67% | 1015.8 hPa | 0 mm | 5.36 m/s, 170° | - | - |
| 1777882803 | 9.44° C | 66% | 1015.8 hPa | 0 mm | 4.92 m/s, 177° | - | - |
| 1777882503 | 9.44° C | 65% | 1015.9 hPa | 0 mm | 4.92 m/s, 172° | - | - |
| 1777882203 | 9.44° C | 65% | 1015.9 hPa | 0 mm | 4.92 m/s, 174° | - | - |
| 1777881902 | 9.44° C | 65% | 1015.8 hPa | 0 mm | 5.36 m/s, 173° | - | - |
| 1777881602 | 10° C | 64% | 1015.9 hPa | 0 mm | 5.36 m/s, 174° | - | - |
| 1777881002 | 10° C | 63% | 1015.7 hPa | 0 mm | 5.81 m/s, 176° | - | - |
* Rain latest hour (hover to see other rain measurements)
** Current wind speed in m/s (hover to see current wind gust speed)